sensor_id;sensor_type;location;lat;lon;timestamp;pressure;altitude;pressure_sealevel;temperature;humidity
80410;BME280;69746;45.596;10.154;2023-12-20T00:00:20;99582.19;;;15.22;56.55
80410;BME280;69746;45.596;10.154;2023-12-20T00:02:46;99579.47;;;15.22;56.83
80410;BME280;69746;45.596;10.154;2023-12-20T00:05:13;99579.47;;;15.22;56.79
80410;BME280;69746;45.596;10.154;2023-12-20T00:07:40;99566.53;;;15.22;56.51
80410;BME280;69746;45.596;10.154;2023-12-20T00:10:06;99565.72;;;15.22;56.64
80410;BME280;69746;45.596;10.154;2023-12-20T00:12:33;99562.97;;;15.22;56.57
80410;BME280;69746;45.596;10.154;2023-12-20T00:14:59;99567.38;;;15.23;56.82
80410;BME280;69746;45.596;10.154;2023-12-20T00:17:25;99563.78;;;15.22;56.55
80410;BME280;69746;45.596;10.154;2023-12-20T00:19:51;99551.97;;;15.22;56.57
80410;BME280;69746;45.596;10.154;2023-12-20T00:22:17;99544.84;;;15.21;56.64
80410;BME280;69746;45.596;10.154;2023-12-20T00:24:43;99535.50;;;15.22;56.62
80410;BME280;69746;45.596;10.154;2023-12-20T00:27:09;99535.50;;;15.22;56.66
80410;BME280;69746;45.596;10.154;2023-12-20T00:29:35;99529.19;;;15.21;56.64
80410;BME280;69746;45.596;10.154;2023-12-20T00:32:01;99528.34;;;15.21;56.92
80410;BME280;69746;45.596;10.154;2023-12-20T00:34:27;99524.50;;;15.22;56.60
80410;BME280;69746;45.596;10.154;2023-12-20T00:36:56;99519.00;;;15.22;56.70
80410;BME280;69746;45.596;10.154;2023-12-20T00:39:22;99522.59;;;15.22;56.80
80410;BME280;69746;45.596;10.154;2023-12-20T00:41:48;99520.13;;;15.21;56.73
80410;BME280;69746;45.596;10.154;2023-12-20T00:44:14;99518.19;;;15.21;56.53
80410;BME280;69746;45.596;10.154;2023-12-20T00:46:43;99505.28;;;15.22;56.75
80410;BME280;69746;45.596;10.154;2023-12-20T00:49:09;99512.69;;;15.21;56.79
80410;BME280;69746;45.596;10.154;2023-12-20T00:51:35;99506.09;;;15.22;56.43
80410;BME280;69746;45.596;10.154;2023-12-20T00:54:01;99508.03;;;15.22;56.53
80410;BME280;69746;45.596;10.154;2023-12-20T00:56:28;99508.03;;;15.22;56.67
80410;BME280;69746;45.596;10.154;2023-12-20T00:58:54;99493.47;;;15.21;56.66
80410;BME280;69746;45.596;10.154;2023-12-20T01:01:20;99493.19;;;15.23;56.48
80410;BME280;69746;45.596;10.154;2023-12-20T01:03:47;99491.53;;;15.22;56.52
80410;BME280;69746;45.596;10.154;2023-12-20T01:06:13;99498.97;;;15.21;56.67
80410;BME280;69746;45.596;10.154;2023-12-20T01:08:40;99491.53;;;15.22;56.60
80410;BME280;69746;45.596;10.154;2023-12-20T01:11:06;99488.78;;;15.22;56.67
80410;BME280;69746;45.596;10.154;2023-12-20T01:13:35;99495.09;;;15.22;56.48
80410;BME280;69746;45.596;10.154;2023-12-20T01:16:01;99489.06;;;15.20;56.68
80410;BME280;69746;45.596;10.154;2023-12-20T01:18:27;99485.22;;;15.21;56.66
80410;BME280;69746;45.596;10.154;2023-12-20T01:20:53;99485.22;;;15.21;56.65
80410;BME280;69746;45.596;10.154;2023-12-20T01:23:19;99482.47;;;15.21;56.42
80410;BME280;69746;45.596;10.154;2023-12-20T01:25:45;99484.13;;;15.22;56.71
80410;BME280;69746;45.596;10.154;2023-12-20T01:28:11;99484.41;;;15.21;56.52
80410;BME280;69746;45.596;10.154;2023-12-20T01:30:37;99482.75;;;15.20;56.62
80410;BME280;69746;45.596;10.154;2023-12-20T01:33:06;99492.63;;;15.21;56.63
80410;BME280;69746;45.596;10.154;2023-12-20T01:35:32;99478.06;;;15.20;56.50
80410;BME280;69746;45.596;10.154;2023-12-20T01:37:58;99478.91;;;15.21;56.53
80410;BME280;69746;45.596;10.154;2023-12-20T01:40:24;99471.75;;;15.20;56.47
80410;BME280;69746;45.596;10.154;2023-12-20T01:43:02;99481.38;;;15.22;56.57
80410;BME280;69746;45.596;10.154;2023-12-20T01:45:28;99469.00;;;15.20;56.59
80410;BME280;69746;45.596;10.154;2023-12-20T01:47:56;99464.06;;;15.22;56.62
80410;BME280;69746;45.596;10.154;2023-12-20T01:50:23;99462.41;;;15.21;56.73
80410;BME280;69746;45.596;10.154;2023-12-20T01:52:54;99447.03;;;15.20;56.38
80410;BME280;69746;45.596;10.154;2023-12-20T01:55:24;99439.63;;;15.20;56.70
80410;BME280;69746;45.596;10.154;2023-12-20T01:57:50;99434.13;;;15.20;56.79
80410;BME280;69746;45.596;10.154;2023-12-20T02:00:18;99427.81;;;15.20;56.70
80410;BME280;69746;45.596;10.154;2023-12-20T02:02:46;99432.47;;;15.19;56.42
80410;BME280;69746;45.596;10.154;2023-12-20T02:05:13;99436.03;;;15.20;56.71
80410;BME280;69746;45.596;10.154;2023-12-20T02:07:39;99430.56;;;15.20;56.67
80410;BME280;69746;45.596;10.154;2023-12-20T02:10:05;99425.88;;;15.20;56.39
80410;BME280;69746;45.596;10.154;2023-12-20T02:12:31;99423.13;;;15.20;56.57
80410;BME280;69746;45.596;10.154;2023-12-20T02:14:57;99423.13;;;15.20;56.46
80410;BME280;69746;45.596;10.154;2023-12-20T02:17:23;99423.13;;;15.20;56.47
80410;BME280;69746;45.596;10.154;2023-12-20T02:19:49;99409.41;;;15.20;56.83
80410;BME280;69746;45.596;10.154;2023-12-20T02:22:15;99409.41;;;15.20;56.82
80410;BME280;69746;45.596;10.154;2023-12-20T02:24:42;99404.72;;;15.21;56.37
80410;BME280;69746;45.596;10.154;2023-12-20T02:27:08;99399.22;;;15.21;56.69
80410;BME280;69746;45.596;10.154;2023-12-20T02:29:35;99393.72;;;15.21;56.77
80410;BME280;69746;45.596;10.154;2023-12-20T02:32:01;99391.81;;;15.21;56.64
80410;BME280;69746;45.596;10.154;2023-12-20T02:34:27;99382.75;;;15.21;56.70
80410;BME280;69746;45.596;10.154;2023-12-20T02:36:53;99389.34;;;15.20;56.42
80410;BME280;69746;45.596;10.154;2023-12-20T02:39:19;99378.34;;;15.20;56.54
80410;BME280;69746;45.596;10.154;2023-12-20T02:41:45;99381.91;;;15.20;56.73
80410;BME280;69746;45.596;10.154;2023-12-20T02:44:11;99370.94;;;15.20;56.43
80410;BME280;69746;45.596;10.154;2023-12-20T02:46:37;99367.38;;;15.20;56.50
80410;BME280;69746;45.596;10.154;2023-12-20T02:49:03;99357.19;;;15.20;56.50
80410;BME280;69746;45.596;10.154;2023-12-20T02:51:29;99354.72;;;15.19;56.58
80410;BME280;69746;45.596;10.154;2023-12-20T02:53:55;99349.22;;;15.19;56.41
80410;BME280;69746;45.596;10.154;2023-12-20T02:56:21;99350.06;;;15.19;56.38
80410;BME280;69746;45.596;10.154;2023-12-20T02:58:47;99352.81;;;15.19;56.34
80410;BME280;69746;45.596;10.154;2023-12-20T03:01:13;99350.06;;;15.19;56.49
80410;BME280;69746;45.596;10.154;2023-12-20T03:03:40;99334.38;;;15.20;56.75
80410;BME280;69746;45.596;10.154;2023-12-20T03:06:06;99338.78;;;15.21;56.39
80410;BME280;69746;45.596;10.154;2023-12-20T03:08:32;99337.13;;;15.20;56.71
80410;BME280;69746;45.596;10.154;2023-12-20T03:10:59;99328.91;;;15.20;56.31
80410;BME280;69746;45.596;10.154;2023-12-20T03:13:25;99328.06;;;15.19;56.57
80410;BME280;69746;45.596;10.154;2023-12-20T03:15:52;99333.56;;;15.19;56.32
80410;BME280;69746;45.596;10.154;2023-12-20T03:18:18;99344.56;;;15.19;56.50
80410;BME280;69746;45.596;10.154;2023-12-20T03:20:44;99343.75;;;15.19;56.47
80410;BME280;69746;45.596;10.154;2023-12-20T03:23:11;99342.63;;;15.20;56.32
80410;BME280;69746;45.596;10.154;2023-12-20T03:25:37;99330.00;;;15.19;56.36
80410;BME280;69746;45.596;10.154;2023-12-20T03:28:04;99330.00;;;15.19;56.49
80410;BME280;69746;45.596;10.154;2023-12-20T03:30:30;99328.06;;;15.19;56.46
80410;BME280;69746;45.596;10.154;2023-12-20T03:32:57;99329.72;;;15.20;56.38
80410;BME280;69746;45.596;10.154;2023-12-20T03:35:23;99328.06;;;15.19;56.37
80410;BME280;69746;45.596;10.154;2023-12-20T03:37:50;99328.91;;;15.20;56.57
80410;BME280;69746;45.596;10.154;2023-12-20T03:40:17;99336.31;;;15.19;56.45
80410;BME280;69746;45.596;10.154;2023-12-20T03:42:46;99337.13;;;15.20;56.71
80410;BME280;69746;45.596;10.154;2023-12-20T03:45:13;99337.13;;;15.20;56.45
80410;BME280;69746;45.596;10.154;2023-12-20T03:47:39;99336.31;;;15.19;56.67
80410;BME280;69746;45.596;10.154;2023-12-20T03:50:06;99335.50;;;15.19;56.42
80410;BME280;69746;45.596;10.154;2023-12-20T03:52:35;99330.81;;;15.19;56.48
80410;BME280;69746;45.596;10.154;2023-12-20T03:55:02;99337.13;;;15.20;56.57
80410;BME280;69746;45.596;10.154;2023-12-20T03:57:29;99325.31;;;15.19;56.39
80410;BME280;69746;45.596;10.154;2023-12-20T03:59:55;99323.41;;;15.20;56.40
80410;BME280;69746;45.596;10.154;2023-12-20T04:02:24;99312.41;;;15.20;56.56
80410;BME280;69746;45.596;10.154;2023-12-20T04:04:51;99308.84;;;15.19;56.38
80410;BME280;69746;45.596;10.154;2023-12-20T04:07:18;99318.72;;;15.20;56.60
80410;BME280;69746;45.596;10.154;2023-12-20T04:09:45;99309.66;;;15.20;56.37
80410;BME280;69746;45.596;10.154;2023-12-20T04:12:15;99307.75;;;15.20;56.44
80410;BME280;69746;45.596;10.154;2023-12-20T04:14:41;99295.94;;;15.20;56.38
80410;BME280;69746;45.596;10.154;2023-12-20T04:17:08;99293.19;;;15.20;56.36
80410;BME280;69746;45.596;10.154;2023-12-20T04:19:37;99292.38;;;15.19;56.36
80410;BME280;69746;45.596;10.154;2023-12-20T04:22:03;99289.63;;;15.19;56.35
80410;BME280;69746;45.596;10.154;2023-12-20T04:24:33;99297.84;;;15.19;56.26
80410;BME280;69746;45.596;10.154;2023-12-20T04:26:59;99286.03;;;15.19;56.28
80410;BME280;69746;45.596;10.154;2023-12-20T04:29:26;99302.53;;;15.19;56.70
80410;BME280;69746;45.596;10.154;2023-12-20T04:31:52;99291.53;;;15.19;56.32
80410;BME280;69746;45.596;10.154;2023-12-20T04:34:18;99292.38;;;15.19;56.62
80410;BME280;69746;45.596;10.154;2023-12-20T04:36:44;99290.44;;;15.20;56.59
80410;BME280;69746;45.596;10.154;2023-12-20T04:39:12;99288.78;;;15.19;56.56
80410;BME280;69746;45.596;10.154;2023-12-20T04:41:40;99290.44;;;15.20;56.42
80410;BME280;69746;45.596;10.154;2023-12-20T04:44:07;99279.44;;;15.20;56.27
80410;BME280;69746;45.596;10.154;2023-12-20T04:46:34;99278.63;;;15.19;56.34
80410;BME280;69746;45.596;10.154;2023-12-20T04:49:00;99273.13;;;15.19;56.55
80410;BME280;69746;45.596;10.154;2023-12-20T04:51:27;99273.13;;;15.19;56.35
80410;BME280;69746;45.596;10.154;2023-12-20T04:53:53;99263.25;;;15.18;56.41
80410;BME280;69746;45.596;10.154;2023-12-20T04:56:20;99269.56;;;15.19;56.30
80410;BME280;69746;45.596;10.154;2023-12-20T04:58:46;99255.00;;;15.18;56.37
80410;BME280;69746;45.596;10.154;2023-12-20T05:01:13;99262.13;;;15.19;56.46
80410;BME280;69746;45.596;10.154;2023-12-20T05:03:39;99266.81;;;15.19;56.41
80410;BME280;69746;45.596;10.154;2023-12-20T05:06:05;99267.63;;;15.19;56.32
80410;BME280;69746;45.596;10.154;2023-12-20T05:08:31;99280.56;;;15.19;56.39
80410;BME280;69746;45.596;10.154;2023-12-20T05:10:57;99271.50;;;15.18;56.38
80410;BME280;69746;45.596;10.154;2023-12-20T05:13:23;99276.97;;;15.18;56.51
80410;BME280;69746;45.596;10.154;2023-12-20T05:15:49;99275.06;;;15.19;56.34
80410;BME280;69746;45.596;10.154;2023-12-20T05:18:14;99284.13;;;15.19;56.40
80410;BME280;69746;45.596;10.154;2023-12-20T05:20:40;99272.31;;;15.19;56.63
80410;BME280;69746;45.596;10.154;2023-12-20T05:23:07;99271.50;;;15.18;56.62
80410;BME280;69746;45.596;10.154;2023-12-20T05:25:33;99268.75;;;15.18;56.59
80410;BME280;69746;45.596;10.154;2023-12-20T05:28:01;99265.16;;;15.18;56.54
80410;BME280;69746;45.596;10.154;2023-12-20T05:30:27;99255.81;;;15.19;56.41
80410;BME280;69746;45.596;10.154;2023-12-20T05:32:53;99240.44;;;15.18;56.61
80410;BME280;69746;45.596;10.154;2023-12-20T05:35:19;99249.50;;;15.18;56.45
80410;BME280;69746;45.596;10.154;2023-12-20T05:37:45;99262.97;;;15.20;56.42
80410;BME280;69746;45.596;10.154;2023-12-20T05:40:11;99253.91;;;15.19;56.33
80410;BME280;69746;45.596;10.154;2023-12-20T05:42:37;99257.47;;;15.20;56.47
80410;BME280;69746;45.596;10.154;2023-12-20T05:45:04;99253.91;;;15.19;56.60
80410;BME280;69746;45.596;10.154;2023-12-20T05:47:30;99266.28;;;15.17;56.63
80410;BME280;69746;45.596;10.154;2023-12-20T05:49:59;99263.25;;;15.18;56.40
80410;BME280;69746;45.596;10.154;2023-12-20T05:52:25;99261.31;;;15.19;56.42
80410;BME280;69746;45.596;10.154;2023-12-20T05:54:51;99253.38;;;15.17;56.48
80410;BME280;69746;45.596;10.154;2023-12-20T05:57:17;99257.75;;;15.18;56.59
80410;BME280;69746;45.596;10.154;2023-12-20T05:59:47;99256.94;;;15.18;56.69
80410;BME280;69746;45.596;10.154;2023-12-20T06:02:12;99258.56;;;15.19;56.79
80410;BME280;69746;45.596;10.154;2023-12-20T06:04:42;99255.00;;;15.18;56.59
80410;BME280;69746;45.596;10.154;2023-12-20T06:07:11;99247.59;;;15.19;56.47
80410;BME280;69746;45.596;10.154;2023-12-20T06:09:38;99248.69;;;15.18;56.86
80410;BME280;69746;45.596;10.154;2023-12-20T06:12:04;99254.19;;;15.18;56.58
80410;BME280;69746;45.596;10.154;2023-12-20T06:14:30;99271.50;;;15.18;56.48
80410;BME280;69746;45.596;10.154;2023-12-20T06:17:00;99279.44;;;15.20;56.38
80410;BME280;69746;45.596;10.154;2023-12-20T06:19:27;99280.56;;;15.19;56.48
80410;BME280;69746;45.596;10.154;2023-12-20T06:21:53;99272.31;;;15.19;56.52
80410;BME280;69746;45.596;10.154;2023-12-20T06:24:19;99267.09;;;15.17;56.66
80410;BME280;69746;45.596;10.154;2023-12-20T06:26:45;99270.94;;;15.16;56.66
80410;BME280;69746;45.596;10.154;2023-12-20T06:29:14;99270.66;;;15.18;56.52
80410;BME280;69746;45.596;10.154;2023-12-20T06:31:40;99265.44;;;15.16;56.67
80410;BME280;69746;45.596;10.154;2023-12-20T06:34:06;99252.53;;;15.17;56.48
80410;BME280;69746;45.596;10.154;2023-12-20T06:36:33;99260.78;;;15.17;56.86
80410;BME280;69746;45.596;10.154;2023-12-20T06:39:02;99261.59;;;15.17;56.64
80410;BME280;69746;45.596;10.154;2023-12-20T06:41:30;99243.47;;;15.16;56.48
80410;BME280;69746;45.596;10.154;2023-12-20T06:43:56;99232.50;;;15.16;56.82
80410;BME280;69746;45.596;10.154;2023-12-20T06:46:22;99236.88;;;15.17;56.52
80410;BME280;69746;45.596;10.154;2023-12-20T06:48:48;99241.56;;;15.17;56.77
80410;BME280;69746;45.596;10.154;2023-12-20T06:51:15;99240.72;;;15.16;56.52
80410;BME280;69746;45.596;10.154;2023-12-20T06:53:42;99239.91;;;15.16;56.73
80410;BME280;69746;45.596;10.154;2023-12-20T06:56:10;99248.16;;;15.16;56.71
80410;BME280;69746;45.596;10.154;2023-12-20T06:58:37;99248.97;;;15.16;56.51
80410;BME280;69746;45.596;10.154;2023-12-20T07:01:03;99246.22;;;15.16;56.43
80410;BME280;69746;45.596;10.154;2023-12-20T07:03:30;99245.41;;;15.16;56.78
80410;BME280;69746;45.596;10.154;2023-12-20T07:05:56;99245.41;;;15.16;56.51
80410;BME280;69746;45.596;10.154;2023-12-20T07:08:22;99251.72;;;15.16;56.53
80410;BME280;69746;45.596;10.154;2023-12-20T07:10:48;99256.09;;;15.17;56.47
80410;BME280;69746;45.596;10.154;2023-12-20T07:13:14;99254.19;;;15.18;56.48
80410;BME280;69746;45.596;10.154;2023-12-20T07:15:40;99260.78;;;15.17;56.44
80410;BME280;69746;45.596;10.154;2023-12-20T07:18:06;99253.66;;;15.16;56.44
80410;BME280;69746;45.596;10.154;2023-12-20T07:20:32;99252.53;;;15.17;56.60
80410;BME280;69746;45.596;10.154;2023-12-20T07:22:59;99261.88;;;15.16;56.52
80410;BME280;69746;45.596;10.154;2023-12-20T07:25:25;99257.22;;;15.16;56.49
80410;BME280;69746;45.596;10.154;2023-12-20T07:27:54;99256.38;;;15.16;56.49
80410;BME280;69746;45.596;10.154;2023-12-20T07:30:20;99258.31;;;15.15;56.76
80410;BME280;69746;45.596;10.154;2023-12-20T07:32:46;99261.88;;;15.16;56.52
80410;BME280;69746;45.596;10.154;2023-12-20T07:35:13;99254.75;;;15.15;56.54
80410;BME280;69746;45.596;10.154;2023-12-20T07:37:39;99250.91;;;15.16;56.48
80410;BME280;69746;45.596;10.154;2023-12-20T07:40:05;99259.13;;;15.16;56.69
80410;BME280;69746;45.596;10.154;2023-12-20T07:42:31;99256.38;;;15.16;56.71
80410;BME280;69746;45.596;10.154;2023-12-20T07:44:58;99259.13;;;15.16;56.50
80410;BME280;69746;45.596;10.154;2023-12-20T07:47:24;99263.81;;;15.15;56.49
80410;BME280;69746;45.596;10.154;2023-12-20T07:49:51;99261.88;;;15.16;56.46
80410;BME280;69746;45.596;10.154;2023-12-20T07:52:18;99263.81;;;15.15;56.69
80410;BME280;69746;45.596;10.154;2023-12-20T07:54:45;99270.13;;;15.16;56.50
80410;BME280;69746;45.596;10.154;2023-12-20T07:57:11;99272.88;;;15.16;56.72
80410;BME280;69746;45.596;10.154;2023-12-20T07:59:40;99269.31;;;15.15;56.68
80410;BME280;69746;45.596;10.154;2023-12-20T08:02:06;99264.63;;;15.16;56.45
80410;BME280;69746;45.596;10.154;2023-12-20T08:04:32;99272.88;;;15.16;56.72
80410;BME280;69746;45.596;10.154;2023-12-20T08:06:58;99269.03;;;15.17;56.57
80410;BME280;69746;45.596;10.154;2023-12-20T08:09:28;99258.31;;;15.15;56.53
80410;BME280;69746;45.596;10.154;2023-12-20T08:11:54;99261.88;;;15.16;56.42
80410;BME280;69746;45.596;10.154;2023-12-20T08:14:21;99265.72;;;15.15;56.58
80410;BME280;69746;45.596;10.154;2023-12-20T08:16:47;99267.38;;;15.16;56.49
80410;BME280;69746;45.596;10.154;2023-12-20T08:19:15;99256.38;;;15.16;56.78
80410;BME280;69746;45.596;10.154;2023-12-20T08:21:41;99255.56;;;15.15;56.49
80410;BME280;69746;45.596;10.154;2023-12-20T08:24:08;99253.66;;;15.16;56.92
80410;BME280;69746;45.596;10.154;2023-12-20T08:26:34;99252.81;;;15.15;56.78
80410;BME280;69746;45.596;10.154;2023-12-20T08:29:03;99260.25;;;15.15;56.43
80410;BME280;69746;45.596;10.154;2023-12-20T08:31:28;99252.00;;;15.15;56.76
80410;BME280;69746;45.596;10.154;2023-12-20T08:33:54;99251.19;;;15.14;56.79
80410;BME280;69746;45.596;10.154;2023-12-20T08:36:21;99247.59;;;15.14;56.48
80410;BME280;69746;45.596;10.154;2023-12-20T08:38:48;99249.25;;;15.15;56.47
80410;BME280;69746;45.596;10.154;2023-12-20T08:41:17;99245.69;;;15.14;56.42
80410;BME280;69746;45.596;10.154;2023-12-20T08:43:44;99250.06;;;15.15;56.48
80410;BME280;69746;45.596;10.154;2023-12-20T08:46:10;99240.19;;;15.14;56.52
80410;BME280;69746;45.596;10.154;2023-12-20T08:48:36;99238.25;;;15.15;56.49
80410;BME280;69746;45.596;10.154;2023-12-20T08:51:03;99232.50;;;15.16;56.71
80410;BME280;69746;45.596;10.154;2023-12-20T08:53:29;99232.78;;;15.15;56.54
80410;BME280;69746;45.596;10.154;2023-12-20T08:55:55;99218.22;;;15.14;56.47
80410;BME280;69746;45.596;10.154;2023-12-20T08:58:23;99219.84;;;15.15;56.53
80410;BME280;69746;45.596;10.154;2023-12-20T09:00:49;99215.47;;;15.14;56.54
80410;BME280;69746;45.596;10.154;2023-12-20T09:03:15;99220.13;;;15.14;56.66
80410;BME280;69746;45.596;10.154;2023-12-20T09:05:42;99220.69;;;15.16;56.57
80410;BME280;69746;45.596;10.154;2023-12-20T09:08:08;99226.16;;;15.16;56.48
80410;BME280;69746;45.596;10.154;2023-12-20T09:10:37;99222.59;;;15.15;56.62
80410;BME280;69746;45.596;10.154;2023-12-20T09:13:03;99221.78;;;15.15;56.54
80410;BME280;69746;45.596;10.154;2023-12-20T09:15:30;99221.78;;;15.15;56.68
80410;BME280;69746;45.596;10.154;2023-12-20T09:17:56;99229.19;;;15.14;56.52
80410;BME280;69746;45.596;10.154;2023-12-20T09:20:22;99228.38;;;15.14;56.47
80410;BME280;69746;45.596;10.154;2023-12-20T09:22:55;99232.78;;;15.15;56.73
80410;BME280;69746;45.596;10.154;2023-12-20T09:25:21;99225.63;;;15.14;56.71
80410;BME280;69746;45.596;10.154;2023-12-20T09:27:48;99213.00;;;15.13;56.84
80410;BME280;69746;45.596;10.154;2023-12-20T09:30:14;99216.84;;;15.12;56.81
80410;BME280;69746;45.596;10.154;2023-12-20T09:32:40;99227.84;;;15.12;56.66
80410;BME280;69746;45.596;10.154;2023-12-20T09:35:06;99226.75;;;15.13;56.55
80410;BME280;69746;45.596;10.154;2023-12-20T09:37:34;99216.84;;;15.12;56.85
80410;BME280;69746;45.596;10.154;2023-12-20T09:40:00;99223.16;;;15.12;56.72
80410;BME280;69746;45.596;10.154;2023-12-20T09:42:40;99227.56;;;15.13;56.77
80410;BME280;69746;45.596;10.154;2023-12-20T09:45:09;99215.75;;;15.13;56.78
80410;BME280;69746;45.596;10.154;2023-12-20T09:47:37;99205.88;;;15.12;56.59
80410;BME280;69746;45.596;10.154;2023-12-20T09:50:03;99213.00;;;15.13;56.65
80410;BME280;69746;45.596;10.154;2023-12-20T09:52:31;99211.34;;;15.12;56.49
80410;BME280;69746;45.596;10.154;2023-12-20T09:54:58;99219.31;;;15.13;56.55
80410;BME280;69746;45.596;10.154;2023-12-20T09:57:24;99215.75;;;15.13;56.73
80410;BME280;69746;45.596;10.154;2023-12-20T09:59:50;99217.69;;;15.12;56.73
80410;BME280;69746;45.596;10.154;2023-12-20T10:02:18;99218.50;;;15.13;56.50
80410;BME280;69746;45.596;10.154;2023-12-20T10:04:47;99215.75;;;15.13;56.48
80410;BME280;69746;45.596;10.154;2023-12-20T10:07:13;99214.94;;;15.12;56.52
80410;BME280;69746;45.596;10.154;2023-12-20T10:09:40;99211.91;;;15.14;56.62
80410;BME280;69746;45.596;10.154;2023-12-20T10:12:07;99208.59;;;15.12;56.56
80410;BME280;69746;45.596;10.154;2023-12-20T10:14:34;99213.81;;;15.13;56.62
80410;BME280;69746;45.596;10.154;2023-12-20T10:17:03;99219.31;;;15.13;56.46
80410;BME280;69746;45.596;10.154;2023-12-20T10:19:30;99217.69;;;15.12;56.56
80410;BME280;69746;45.596;10.154;2023-12-20T10:22:01;99214.94;;;15.12;56.47
80410;BME280;69746;45.596;10.154;2023-12-20T10:24:30;99209.44;;;15.12;56.50
80410;BME280;69746;45.596;10.154;2023-12-20T10:27:06;99212.19;;;15.12;56.71
80410;BME280;69746;45.596;10.154;2023-12-20T10:29:36;99216.84;;;15.12;56.67
80410;BME280;69746;45.596;10.154;2023-12-20T10:32:34;99220.97;;;15.14;56.52
80410;BME280;69746;45.596;10.154;2023-12-20T10:35:00;99236.91;;;15.12;56.68
80410;BME280;69746;45.596;10.154;2023-12-20T10:37:28;99230.59;;;15.12;56.58
80410;BME280;69746;45.596;10.154;2023-12-20T10:39:54;99225.91;;;15.12;56.79
80410;BME280;69746;45.596;10.154;2023-12-20T10:42:26;99224.81;;;15.13;56.54
80410;BME280;69746;45.596;10.154;2023-12-20T10:44:52;99231.41;;;15.12;56.48
80410;BME280;69746;45.596;10.154;2023-12-20T10:47:20;99236.06;;;15.12;56.80
80410;BME280;69746;45.596;10.154;2023-12-20T10:49:46;99230.59;;;15.12;56.59
80410;BME280;69746;45.596;10.154;2023-12-20T10:52:13;99224.28;;;15.11;56.88
80410;BME280;69746;45.596;10.154;2023-12-20T10:54:40;99218.78;;;15.11;56.63
80410;BME280;69746;45.596;10.154;2023-12-20T10:57:09;99225.09;;;15.12;56.81
80410;BME280;69746;45.596;10.154;2023-12-20T10:59:37;99211.06;;;15.13;56.56
80410;BME280;69746;45.596;10.154;2023-12-20T11:02:04;99211.34;;;15.12;56.78
80410;BME280;69746;45.596;10.154;2023-12-20T11:04:54;99203.13;;;15.12;56.81
80410;BME280;69746;45.596;10.154;2023-12-20T11:07:36;99196.53;;;15.13;56.72
80410;BME280;69746;45.596;10.154;2023-12-20T11:10:10;99196.81;;;15.11;56.89
80410;BME280;69746;45.596;10.154;2023-12-20T11:15:16;99174.00;;;15.11;56.67
80410;BME280;69746;45.596;10.154;2023-12-20T11:17:45;99172.91;;;15.12;56.91
80410;BME280;69746;45.596;10.154;2023-12-20T11:20:14;99171.25;;;15.11;56.80
80410;BME280;69746;45.596;10.154;2023-12-20T11:22:52;99180.03;;;15.13;56.81
80410;BME280;69746;45.596;10.154;2023-12-20T11:25:19;99181.69;;;15.14;56.50
80410;BME280;69746;45.596;10.154;2023-12-20T11:28:08;99174.53;;;15.13;56.55
80410;BME280;69746;45.596;10.154;2023-12-20T11:33:08;99168.22;;;15.12;56.58
80410;BME280;69746;45.596;10.154;2023-12-20T11:35:35;99169.34;;;15.11;56.81
80410;BME280;69746;45.596;10.154;2023-12-20T11:38:02;99161.91;;;15.12;56.50
80410;BME280;69746;45.596;10.154;2023-12-20T11:40:34;99155.31;;;15.13;56.67
80410;BME280;69746;45.596;10.154;2023-12-20T11:43:00;99157.25;;;15.12;56.44
80410;BME280;69746;45.596;10.154;2023-12-20T11:45:26;99143.50;;;15.12;56.79
80410;BME280;69746;45.596;10.154;2023-12-20T11:47:53;99141.88;;;15.11;56.63
80410;BME280;69746;45.596;10.154;2023-12-20T11:50:24;99149.00;;;15.12;56.49
80410;BME280;69746;45.596;10.154;2023-12-20T11:52:52;99151.75;;;15.12;56.69
80410;BME280;69746;45.596;10.154;2023-12-20T11:55:18;99152.56;;;15.13;56.56
80410;BME280;69746;45.596;10.154;2023-12-20T11:57:44;99152.56;;;15.13;56.57
80410;BME280;69746;45.596;10.154;2023-12-20T12:00:11;99163.56;;;15.13;56.68
80410;BME280;69746;45.596;10.154;2023-12-20T12:02:37;99174.53;;;15.13;56.52
80410;BME280;69746;45.596;10.154;2023-12-20T12:05:03;99164.38;;;15.13;56.51
80410;BME280;69746;45.596;10.154;2023-12-20T12:07:33;99153.38;;;15.13;56.68
80410;BME280;69746;45.596;10.154;2023-12-20T12:10:02;99146.25;;;15.12;56.67
80410;BME280;69746;45.596;10.154;2023-12-20T12:12:29;99149.81;;;15.13;56.78
80410;BME280;69746;45.596;10.154;2023-12-20T12:14:56;99141.59;;;15.13;56.75
80410;BME280;69746;45.596;10.154;2023-12-20T12:17:23;99139.94;;;15.12;56.78
80410;BME280;69746;45.596;10.154;2023-12-20T12:20:02;99142.41;;;15.13;56.83
80410;BME280;69746;45.596;10.154;2023-12-20T12:22:30;99141.03;;;15.11;56.91
80410;BME280;69746;45.596;10.154;2023-12-20T12:24:59;99138.84;;;15.13;56.73
80410;BME280;69746;45.596;10.154;2023-12-20T12:27:25;99138.00;;;15.12;56.57
80410;BME280;69746;45.596;10.154;2023-12-20T12:30:04;99129.78;;;15.12;56.87
80410;BME280;69746;45.596;10.154;2023-12-20T12:32:33;99132.53;;;15.12;56.92
80410;BME280;69746;45.596;10.154;2023-12-20T12:34:59;99138.00;;;15.12;56.58
80410;BME280;69746;45.596;10.154;2023-12-20T12:37:25;99128.97;;;15.12;56.68
80410;BME280;69746;45.596;10.154;2023-12-20T12:39:55;99127.03;;;15.12;56.53
80410;BME280;69746;45.596;10.154;2023-12-20T12:42:21;99126.22;;;15.12;56.62
80410;BME280;69746;45.596;10.154;2023-12-20T12:44:47;99123.47;;;15.12;56.72
80410;BME280;69746;45.596;10.154;2023-12-20T12:47:13;99131.41;;;15.13;56.72
80410;BME280;69746;45.596;10.154;2023-12-20T12:49:41;99133.34;;;15.13;56.60
80410;BME280;69746;45.596;10.154;2023-12-20T12:52:07;99127.84;;;15.13;56.79
80410;BME280;69746;45.596;10.154;2023-12-20T12:54:33;99117.69;;;15.13;56.59